createdAt,value
2022-12-29T00:00:18.874Z,11.40
2022-12-29T00:02:45.746Z,11.40
2022-12-29T00:05:12.682Z,11.50
2022-12-29T00:07:39.571Z,11.50
2022-12-29T00:10:06.934Z,11.40
2022-12-29T00:12:53.597Z,11.40
2022-12-29T00:15:38.734Z,11.50
2022-12-29T00:18:06.095Z,11.50
2022-12-29T00:21:16.661Z,11.50
2022-12-29T00:24:03.121Z,11.50
2022-12-29T00:26:48.722Z,11.50
2022-12-29T00:29:33.901Z,11.50
2022-12-29T00:32:19.923Z,11.50
2022-12-29T00:35:05.462Z,11.50
2022-12-29T00:38:01.448Z,11.50
2022-12-29T00:40:46.964Z,11.60
2022-12-29T00:43:32.583Z,11.60
2022-12-29T00:45:59.437Z,11.70
2022-12-29T00:48:44.887Z,11.70
2022-12-29T00:51:11.801Z,11.60
2022-12-29T00:53:38.579Z,11.70
2022-12-29T00:56:05.618Z,11.70
2022-12-29T00:58:32.471Z,11.70
2022-12-29T01:01:07.065Z,11.70
2022-12-29T01:03:35.048Z,11.70
2022-12-29T01:06:03.660Z,11.70
2022-12-29T01:08:30.907Z,11.80
2022-12-29T01:11:09.832Z,11.80
2022-12-29T01:13:39.182Z,11.80
2022-12-29T01:16:07.895Z,11.90
2022-12-29T01:18:34.870Z,12.00
2022-12-29T01:21:03.625Z,12.00
2022-12-29T01:23:30.827Z,12.00
2022-12-29T01:25:58.008Z,12.00
2022-12-29T01:28:26.343Z,12.10
2022-12-29T01:30:53.289Z,12.20
2022-12-29T01:33:20.144Z,12.20
2022-12-29T01:35:46.998Z,12.20
2022-12-29T01:38:13.785Z,12.20
2022-12-29T01:40:47.689Z,12.20
2022-12-29T01:43:17.746Z,12.30
2022-12-29T01:45:51.534Z,12.40
2022-12-29T01:48:20.506Z,12.40
2022-12-29T01:50:54.643Z,12.40
2022-12-29T01:53:29.241Z,12.40
2022-12-29T01:56:00.241Z,12.40
2022-12-29T01:58:31.988Z,12.30
2022-12-29T02:00:58.892Z,12.30
2022-12-29T02:03:27.856Z,12.30
2022-12-29T02:06:13.992Z,12.30
2022-12-29T02:08:42.489Z,12.30
2022-12-29T02:11:09.244Z,12.30
2022-12-29T02:13:36.041Z,12.40
2022-12-29T02:16:23.010Z,12.40
2022-12-29T02:19:09.256Z,12.30
2022-12-29T02:22:20.435Z,12.20
2022-12-29T02:25:05.975Z,12.20
2022-12-29T02:28:17.261Z,12.10
2022-12-29T02:31:06.116Z,12.10
2022-12-29T02:33:52.436Z,12.00
2022-12-29T02:36:42.317Z,12.00
2022-12-29T02:39:24.173Z,12.00
2022-12-29T02:42:23.763Z,12.00
2022-12-29T02:45:28.510Z,11.90
2022-12-29T02:48:26.421Z,11.90
2022-12-29T02:51:03.641Z,11.90
2022-12-29T02:53:51.775Z,12.00
2022-12-29T02:56:19.020Z,11.90
2022-12-29T02:58:45.959Z,11.90
2022-12-29T03:01:24.391Z,11.90
2022-12-29T03:04:10.891Z,11.90
2022-12-29T03:06:52.846Z,11.90
2022-12-29T03:09:48.790Z,11.90
2022-12-29T03:13:07.577Z,11.80
2022-12-29T03:16:03.243Z,11.90
2022-12-29T03:18:43.139Z,11.90
2022-12-29T03:22:07.291Z,12.00
2022-12-29T03:24:39.570Z,12.10
2022-12-29T03:27:10.287Z,12.00
2022-12-29T03:29:43.849Z,12.10
2022-12-29T03:32:13.570Z,12.10
2022-12-29T03:34:40.830Z,12.10
2022-12-29T03:37:18.038Z,12.20
2022-12-29T03:39:45.738Z,12.10
2022-12-29T03:42:20.807Z,12.10
2022-12-29T03:44:48.541Z,12.10
2022-12-29T03:47:16.327Z,12.10
2022-12-29T03:49:44.020Z,12.10
2022-12-29T03:52:10.772Z,12.00
2022-12-29T03:54:37.566Z,12.00
2022-12-29T03:57:04.356Z,12.00
2022-12-29T03:59:31.122Z,12.00
2022-12-29T04:01:57.957Z,12.00
2022-12-29T04:04:24.869Z,12.00
2022-12-29T04:06:51.647Z,12.10
2022-12-29T04:09:18.416Z,12.10
2022-12-29T04:11:45.334Z,12.10
2022-12-29T04:14:12.096Z,12.10
2022-12-29T04:16:39.864Z,12.00
2022-12-29T04:19:08.431Z,12.00
2022-12-29T04:21:35.623Z,11.90
2022-12-29T04:24:02.393Z,11.80
2022-12-29T04:26:29.162Z,11.80
2022-12-29T04:28:55.909Z,11.70
2022-12-29T04:31:22.740Z,11.60
2022-12-29T04:33:49.537Z,11.70
2022-12-29T04:36:16.515Z,11.70
2022-12-29T04:38:45.532Z,11.60
2022-12-29T04:41:12.339Z,11.60
2022-12-29T04:43:39.133Z,11.60
2022-12-29T04:46:06.771Z,11.60
2022-12-29T04:48:34.211Z,11.70
2022-12-29T04:51:01.640Z,11.90
2022-12-29T04:53:28.395Z,12.10
2022-12-29T04:55:55.219Z,12.10
2022-12-29T04:58:23.140Z,12.10
2022-12-29T05:00:51.919Z,12.10
2022-12-29T05:03:19.086Z,12.30
2022-12-29T05:05:46.008Z,12.20
2022-12-29T05:08:12.759Z,12.10
2022-12-29T05:10:40.620Z,12.10
2022-12-29T05:13:07.338Z,12.00
2022-12-29T05:15:34.311Z,11.90
2022-12-29T05:18:01.124Z,11.80
2022-12-29T05:20:27.955Z,11.70
2022-12-29T05:22:54.755Z,11.60
2022-12-29T05:25:21.590Z,11.50
2022-12-29T05:27:48.318Z,11.40
2022-12-29T05:30:15.157Z,11.30
2022-12-29T05:32:41.924Z,11.30
2022-12-29T05:35:09.278Z,11.30
2022-12-29T05:37:36.070Z,11.20
2022-12-29T05:40:02.858Z,11.20
2022-12-29T05:42:29.699Z,11.20
2022-12-29T05:44:56.474Z,11.30
2022-12-29T05:47:23.226Z,11.30
2022-12-29T05:49:50.110Z,11.30
2022-12-29T05:52:16.826Z,11.40
2022-12-29T05:54:44.089Z,11.30
2022-12-29T05:57:10.970Z,11.40
2022-12-29T05:59:37.722Z,11.30
2022-12-29T06:02:04.776Z,11.40
2022-12-29T06:04:31.684Z,11.40
2022-12-29T06:06:58.383Z,11.30
2022-12-29T06:09:25.218Z,11.40
2022-12-29T06:11:52.083Z,11.20
2022-12-29T06:14:18.827Z,11.20
2022-12-29T06:16:45.701Z,11.20
2022-12-29T06:19:12.523Z,11.10
2022-12-29T06:21:39.360Z,10.90
2022-12-29T06:24:06.752Z,10.80
2022-12-29T06:26:33.576Z,10.70
2022-12-29T06:29:00.471Z,10.60
2022-12-29T06:31:27.299Z,10.60
2022-12-29T06:33:54.134Z,10.70
2022-12-29T06:36:20.921Z,10.70
2022-12-29T06:38:47.695Z,10.60
2022-12-29T06:41:14.451Z,10.60
2022-12-29T06:43:41.414Z,10.50
2022-12-29T06:46:08.253Z,10.60
2022-12-29T06:48:35.072Z,10.60
2022-12-29T06:51:01.939Z,10.80
2022-12-29T06:53:28.832Z,10.80
2022-12-29T06:55:57.532Z,10.90
2022-12-29T06:58:24.754Z,11.00
2022-12-29T07:00:51.579Z,10.90
2022-12-29T07:03:18.420Z,10.90
2022-12-29T07:05:45.291Z,11.00
2022-12-29T07:08:12.185Z,10.90
2022-12-29T07:10:38.995Z,10.90
2022-12-29T07:13:05.757Z,10.80
2022-12-29T07:15:32.528Z,10.90
2022-12-29T07:17:59.382Z,10.90
2022-12-29T07:20:27.254Z,10.90
2022-12-29T07:22:54.422Z,10.90
2022-12-29T07:25:21.303Z,10.90
2022-12-29T07:27:48.368Z,10.80
2022-12-29T07:30:15.322Z,10.90
2022-12-29T07:32:42.404Z,10.90
2022-12-29T07:35:09.341Z,10.90
2022-12-29T07:37:36.114Z,10.90
2022-12-29T07:40:04.425Z,10.90
2022-12-29T07:42:32.165Z,10.90
2022-12-29T07:44:58.924Z,10.90
2022-12-29T07:47:26.475Z,10.90
2022-12-29T07:49:53.197Z,10.80
2022-12-29T07:52:20.024Z,10.80
2022-12-29T07:54:46.899Z,10.80
2022-12-29T07:57:13.952Z,10.90
2022-12-29T07:59:40.661Z,10.90
2022-12-29T08:02:07.501Z,10.90
2022-12-29T08:04:34.355Z,11.00
2022-12-29T08:07:01.152Z,11.00
2022-12-29T08:09:27.922Z,11.00
2022-12-29T08:11:55.224Z,11.00
2022-12-29T08:14:22.157Z,11.00
2022-12-29T08:16:49.045Z,11.00
2022-12-29T08:19:15.815Z,11.10
2022-12-29T08:21:42.655Z,11.10
2022-12-29T08:24:09.932Z,11.00
2022-12-29T08:26:36.789Z,11.00
2022-12-29T08:29:03.611Z,11.00
2022-12-29T08:31:30.535Z,11.00
2022-12-29T08:33:57.415Z,11.00
2022-12-29T08:36:24.235Z,11.10
2022-12-29T08:38:51.050Z,11.00
2022-12-29T08:41:17.807Z,11.00
2022-12-29T08:43:50.454Z,11.10
2022-12-29T08:46:18.016Z,11.20
2022-12-29T08:48:44.990Z,11.10
2022-12-29T08:51:12.103Z,11.10
2022-12-29T08:53:39.094Z,11.10
2022-12-29T08:56:06.416Z,11.10
2022-12-29T08:58:33.788Z,11.10
2022-12-29T09:01:00.806Z,11.00
2022-12-29T09:06:16.257Z,11.00
2022-12-29T09:08:43.280Z,11.10
2022-12-29T09:11:12.264Z,11.10
2022-12-29T09:13:39.632Z,11.10
2022-12-29T09:16:06.806Z,11.20
2022-12-29T09:18:34.228Z,11.20
2022-12-29T09:21:03.481Z,11.20
2022-12-29T09:23:30.833Z,11.20
2022-12-29T09:25:57.782Z,11.20
2022-12-29T09:28:24.577Z,11.30
2022-12-29T09:30:51.889Z,11.30
2022-12-29T09:33:19.503Z,11.30
2022-12-29T09:35:51.487Z,11.40
2022-12-29T09:38:18.236Z,11.30
2022-12-29T09:40:50.341Z,11.40
2022-12-29T09:43:35.627Z,11.40
2022-12-29T09:46:20.972Z,11.40
2022-12-29T09:49:02.051Z,11.50
2022-12-29T09:51:29.392Z,11.40
2022-12-29T09:54:19.051Z,11.50
2022-12-29T09:56:46.857Z,11.60
2022-12-29T09:59:20.269Z,11.60
2022-12-29T10:01:57.783Z,11.60
2022-12-29T10:04:28.540Z,11.60
2022-12-29T10:07:34.189Z,11.60
2022-12-29T10:10:16.031Z,11.60
2022-12-29T10:12:54.623Z,11.70
2022-12-29T10:15:39.201Z,11.90
2022-12-29T10:18:49.739Z,11.90
2022-12-29T10:21:31.548Z,11.90
2022-12-29T10:24:03.415Z,11.80
2022-12-29T10:26:34.883Z,11.90
2022-12-29T10:29:19.227Z,12.00
2022-12-29T10:31:58.292Z,12.00
2022-12-29T10:34:24.995Z,12.10
2022-12-29T10:37:01.299Z,12.00
2022-12-29T10:39:41.797Z,11.90
2022-12-29T10:42:20.203Z,12.00
2022-12-29T10:44:47.006Z,12.00
2022-12-29T10:47:19.341Z,12.10
2022-12-29T10:49:48.553Z,12.10
2022-12-29T10:52:18.181Z,12.20
2022-12-29T10:55:06.652Z,12.30
2022-12-29T10:57:47.941Z,12.40
2022-12-29T11:00:18.986Z,12.40
2022-12-29T11:03:18.664Z,12.30
2022-12-29T11:06:04.172Z,12.20
2022-12-29T11:08:40.354Z,12.20
2022-12-29T11:11:09.569Z,12.10
2022-12-29T11:13:51.217Z,12.20
2022-12-29T11:16:33.906Z,12.30
2022-12-29T11:19:02.022Z,12.20
2022-12-29T11:21:35.646Z,12.20
2022-12-29T11:24:05.893Z,12.20
2022-12-29T11:26:34.659Z,12.20
2022-12-29T11:29:26.311Z,12.20
2022-12-29T11:32:00.515Z,12.20
2022-12-29T11:34:35.601Z,12.20
2022-12-29T11:37:15.377Z,12.20
2022-12-29T11:39:48.093Z,12.20
2022-12-29T11:42:35.898Z,12.20
2022-12-29T11:45:18.094Z,12.20
2022-12-29T11:48:00.843Z,12.30
2022-12-29T11:50:32.758Z,12.20
2022-12-29T11:53:44.650Z,12.30
2022-12-29T11:56:17.867Z,12.20
2022-12-29T11:58:45.095Z,12.20
2022-12-29T12:01:36.875Z,12.20
2022-12-29T12:04:27.135Z,12.20
2022-12-29T12:07:09.080Z,12.10
2022-12-29T12:09:44.748Z,12.20
2022-12-29T12:12:25.677Z,12.10
2022-12-29T12:15:00.463Z,12.10
2022-12-29T12:17:58.142Z,12.20
2022-12-29T12:20:52.885Z,12.10
2022-12-29T12:23:57.869Z,12.20
2022-12-29T12:26:43.630Z,12.00
2022-12-29T12:29:24.025Z,12.00
2022-12-29T12:31:58.771Z,12.00
2022-12-29T12:34:36.574Z,12.00
2022-12-29T12:37:15.042Z,12.00
2022-12-29T12:40:12.470Z,11.90
2022-12-29T12:43:17.791Z,11.80
2022-12-29T12:46:00.208Z,11.90
2022-12-29T12:48:47.473Z,11.90
2022-12-29T12:51:29.018Z,11.90
2022-12-29T12:54:01.314Z,11.90
2022-12-29T12:56:43.164Z,11.90
2022-12-29T12:59:45.125Z,11.90
2022-12-29T13:02:51.241Z,11.80
2022-12-29T13:05:43.758Z,11.80
2022-12-29T13:08:24.850Z,11.80
2022-12-29T13:11:00.200Z,11.80
2022-12-29T13:14:05.781Z,11.80
2022-12-29T13:16:50.124Z,11.90
2022-12-29T13:19:31.630Z,11.80
2022-12-29T13:22:33.788Z,11.90
2022-12-29T13:25:28.442Z,11.90
2022-12-29T13:28:06.096Z,11.90
2022-12-29T13:30:58.801Z,11.80
2022-12-29T13:33:42.228Z,11.80
2022-12-29T13:36:34.921Z,11.70
2022-12-29T13:39:10.496Z,11.70
2022-12-29T13:41:44.185Z,11.70
2022-12-29T13:44:18.879Z,11.90
2022-12-29T13:46:47.758Z,11.80
2022-12-29T13:49:25.388Z,11.70
2022-12-29T13:51:53.654Z,11.80
2022-12-29T13:54:26.235Z,11.70
2022-12-29T13:57:08.059Z,11.70
2022-12-29T13:59:55.826Z,11.70
2022-12-29T14:02:46.811Z,11.70
2022-12-29T14:05:22.667Z,11.70
2022-12-29T14:08:04.044Z,11.70
2022-12-29T14:10:38.867Z,11.70
2022-12-29T14:13:19.293Z,11.90
2022-12-29T14:15:52.927Z,11.90
2022-12-29T14:18:27.899Z,11.90
2022-12-29T14:21:02.707Z,11.80
2022-12-29T14:23:35.505Z,11.70
2022-12-29T14:26:13.189Z,11.70
2022-12-29T14:28:44.360Z,11.70
2022-12-29T14:31:20.479Z,11.60
2022-12-29T14:34:12.378Z,11.60
2022-12-29T14:37:04.149Z,11.60
2022-12-29T14:39:33.351Z,11.50
2022-12-29T14:42:07.574Z,11.50
2022-12-29T14:44:35.328Z,11.50
2022-12-29T14:47:09.316Z,11.50
2022-12-29T14:49:45.370Z,11.40
2022-12-29T14:52:24.831Z,11.40
2022-12-29T14:54:53.582Z,11.30
2022-12-29T14:57:28.402Z,11.30
2022-12-29T15:00:07.764Z,11.20
2022-12-29T15:02:41.488Z,11.20
2022-12-29T15:05:27.236Z,11.10
2022-12-29T15:07:55.559Z,11.10
2022-12-29T15:10:24.541Z,11.10
2022-12-29T15:12:54.956Z,11.10
2022-12-29T15:15:28.169Z,11.10
2022-12-29T15:17:55.343Z,10.70
2022-12-29T15:20:31.352Z,10.20
2022-12-29T15:23:10.172Z,9.80
2022-12-29T15:25:37.398Z,9.70
2022-12-29T15:28:07.199Z,9.70
2022-12-29T15:30:34.116Z,9.60
2022-12-29T15:33:00.992Z,9.40
2022-12-29T15:35:30.814Z,9.40
2022-12-29T15:37:58.310Z,9.20
2022-12-29T15:40:33.548Z,9.10
2022-12-29T15:43:18.399Z,9.20
2022-12-29T15:45:45.341Z,9.20
2022-12-29T15:48:20.540Z,9.00
2022-12-29T15:50:48.035Z,8.90
2022-12-29T15:53:33.133Z,8.80
2022-12-29T15:56:11.213Z,8.80
2022-12-29T15:58:49.821Z,8.60
2022-12-29T16:01:33.055Z,8.70
2022-12-29T16:04:02.250Z,8.70
2022-12-29T16:06:35.369Z,8.50
2022-12-29T16:09:05.923Z,8.50
2022-12-29T16:11:41.610Z,8.40
2022-12-29T16:14:17.411Z,8.40
2022-12-29T16:16:46.172Z,8.40
2022-12-29T16:19:29.988Z,8.40
2022-12-29T16:21:59.894Z,8.30
2022-12-29T16:24:31.068Z,8.10
2022-12-29T16:27:08.081Z,8.10
2022-12-29T16:29:35.847Z,8.00
2022-12-29T16:32:06.250Z,7.80
2022-12-29T16:34:40.031Z,7.80
2022-12-29T16:37:31.603Z,7.70
2022-12-29T16:40:29.298Z,7.70
2022-12-29T16:43:01.528Z,7.90
2022-12-29T16:45:46.851Z,8.10
2022-12-29T16:48:21.124Z,8.40
2022-12-29T16:50:49.641Z,8.60
2022-12-29T16:53:38.754Z,8.60
2022-12-29T16:56:25.147Z,8.70
2022-12-29T16:59:04.303Z,8.60
2022-12-29T17:01:31.993Z,8.60
2022-12-29T17:04:06.193Z,8.60
2022-12-29T17:06:33.371Z,8.50
2022-12-29T17:09:00.233Z,8.50
2022-12-29T17:11:59.387Z,8.60
2022-12-29T17:14:45.049Z,8.50
2022-12-29T17:17:21.856Z,8.50
2022-12-29T17:19:55.442Z,8.50
2022-12-29T17:22:28.655Z,8.40
2022-12-29T17:24:58.135Z,8.60
2022-12-29T17:27:47.202Z,8.70
2022-12-29T17:30:17.211Z,8.70
2022-12-29T17:32:49.231Z,8.70
2022-12-29T17:35:21.123Z,8.80
2022-12-29T17:37:48.721Z,8.80
2022-12-29T17:40:21.816Z,8.80
2022-12-29T17:42:50.418Z,8.80
2022-12-29T17:45:25.836Z,8.80
2022-12-29T17:47:52.831Z,8.70
2022-12-29T17:50:22.069Z,8.70
2022-12-29T17:53:00.774Z,8.70
2022-12-29T17:55:34.720Z,8.70
2022-12-29T17:58:19.771Z,8.60
2022-12-29T18:00:48.658Z,8.60
2022-12-29T18:03:23.140Z,8.60
2022-12-29T18:05:50.395Z,8.60
2022-12-29T18:08:17.168Z,8.50
2022-12-29T18:10:44.081Z,8.60
2022-12-29T18:13:19.406Z,8.50
2022-12-29T18:15:47.142Z,8.50
2022-12-29T18:18:22.943Z,8.60
2022-12-29T18:20:52.273Z,8.60
2022-12-29T18:23:20.997Z,8.60
2022-12-29T18:25:55.039Z,8.50
2022-12-29T18:28:21.836Z,8.50
2022-12-29T18:30:56.996Z,8.50
2022-12-29T18:33:26.648Z,8.50
2022-12-29T18:36:02.254Z,8.50
2022-12-29T18:38:29.883Z,8.50
2022-12-29T18:40:57.391Z,8.50
2022-12-29T18:43:24.471Z,8.50
2022-12-29T18:45:51.384Z,8.50
2022-12-29T18:48:20.465Z,8.50
2022-12-29T18:50:49.883Z,8.60
2022-12-29T18:53:24.632Z,8.60
2022-12-29T18:55:52.950Z,8.60
2022-12-29T18:58:19.896Z,8.60
2022-12-29T19:00:47.567Z,8.60
2022-12-29T19:03:18.023Z,8.60
2022-12-29T19:05:46.981Z,8.70
2022-12-29T19:08:14.430Z,8.80
2022-12-29T19:10:42.428Z,8.70
2022-12-29T19:13:19.455Z,8.80
2022-12-29T19:15:47.998Z,8.90
2022-12-29T19:21:07.117Z,9.00
2022-12-29T19:23:34.001Z,9.00
2022-12-29T19:26:00.762Z,9.00
2022-12-29T19:28:29.331Z,9.10
2022-12-29T19:31:01.879Z,9.00
2022-12-29T19:33:29.589Z,9.00
2022-12-29T19:36:01.881Z,9.00
2022-12-29T19:38:29.049Z,8.90
2022-12-29T19:40:56.370Z,8.90
2022-12-29T19:43:23.152Z,8.80
2022-12-29T19:45:51.483Z,8.70
2022-12-29T19:48:20.414Z,8.70
2022-12-29T19:50:47.966Z,8.60
2022-12-29T19:53:15.335Z,8.60
2022-12-29T19:55:46.697Z,8.70
2022-12-29T19:58:14.536Z,8.60
2022-12-29T20:00:43.014Z,8.60
2022-12-29T20:03:10.287Z,8.60
2022-12-29T20:05:37.860Z,8.50
2022-12-29T20:08:04.872Z,8.50
2022-12-29T20:10:31.687Z,8.60
2022-12-29T20:12:58.513Z,8.60
2022-12-29T20:15:25.378Z,8.70
2022-12-29T20:20:38.896Z,8.60
2022-12-29T20:23:05.726Z,8.60
2022-12-29T20:25:48.602Z,8.40
2022-12-29T20:28:15.993Z,8.40
2022-12-29T20:30:43.141Z,8.40
2022-12-29T20:33:10.031Z,8.40
2022-12-29T20:35:37.422Z,8.40
2022-12-29T20:38:05.443Z,8.40
2022-12-29T20:40:32.606Z,8.30
2022-12-29T20:42:59.443Z,8.40
2022-12-29T20:45:26.544Z,8.30
2022-12-29T20:47:53.567Z,8.30
2022-12-29T20:50:20.429Z,8.20
2022-12-29T20:52:47.203Z,8.20
2022-12-29T20:55:14.280Z,8.10
2022-12-29T21:00:30.477Z,8.00
2022-12-29T21:03:01.311Z,8.00
2022-12-29T21:05:28.961Z,7.90
2022-12-29T21:07:56.762Z,7.80
2022-12-29T21:10:23.698Z,7.80
2022-12-29T21:12:50.604Z,7.80
2022-12-29T21:15:17.794Z,7.70
2022-12-29T21:17:45.294Z,7.70
2022-12-29T21:20:30.210Z,7.60
2022-12-29T21:23:01.233Z,7.40
2022-12-29T21:25:39.127Z,7.30
2022-12-29T21:28:08.369Z,7.30
2022-12-29T21:30:35.860Z,7.10
2022-12-29T21:33:02.838Z,7.00
2022-12-29T21:35:30.286Z,7.00
2022-12-29T21:37:57.140Z,6.80
2022-12-29T21:40:24.092Z,6.80
2022-12-29T21:42:51.039Z,6.60
2022-12-29T21:45:26.818Z,6.60
2022-12-29T21:48:12.974Z,6.60
2022-12-29T21:51:02.975Z,6.50
2022-12-29T21:53:38.293Z,6.50
2022-12-29T21:56:11.184Z,6.50
2022-12-29T21:58:58.491Z,6.40
2022-12-29T22:01:45.262Z,6.40
2022-12-29T22:04:35.638Z,6.30
2022-12-29T22:07:25.611Z,6.40
2022-12-29T22:10:11.214Z,6.30
2022-12-29T22:12:56.688Z,6.20
2022-12-29T22:15:24.051Z,6.10
2022-12-29T22:17:52.845Z,6.00
2022-12-29T22:20:22.246Z,5.90
2022-12-29T22:22:49.311Z,5.90
2022-12-29T22:25:16.312Z,5.80
2022-12-29T22:27:43.649Z,5.70
2022-12-29T22:30:11.566Z,5.50
2022-12-29T22:32:38.361Z,5.50
2022-12-29T22:35:08.359Z,5.50
2022-12-29T22:37:36.890Z,5.40
2022-12-29T22:40:05.122Z,5.60
2022-12-29T22:42:32.005Z,5.50
2022-12-29T22:44:58.876Z,5.50
2022-12-29T22:47:25.694Z,5.40
2022-12-29T22:49:52.567Z,5.30
2022-12-29T22:52:19.320Z,5.30
2022-12-29T22:54:46.077Z,5.30
2022-12-29T22:57:12.872Z,5.20
2022-12-29T22:59:40.056Z,5.10
2022-12-29T23:02:06.900Z,5.10
2022-12-29T23:05:02.456Z,5.00
2022-12-29T23:07:21.252Z,5.20
2022-12-29T23:09:48.084Z,5.40
2022-12-29T23:12:14.937Z,5.60
2022-12-29T23:14:41.707Z,5.70
2022-12-29T23:17:08.570Z,5.80
2022-12-29T23:19:35.413Z,6.10
2022-12-29T23:22:02.325Z,6.30
2022-12-29T23:24:29.083Z,6.40
2022-12-29T23:26:55.924Z,6.50
2022-12-29T23:29:22.890Z,6.50
2022-12-29T23:31:49.798Z,6.50
2022-12-29T23:34:17.469Z,6.60
2022-12-29T23:36:44.314Z,6.60
2022-12-29T23:39:25.938Z,6.60
2022-12-29T23:41:53.182Z,6.60
2022-12-29T23:44:20.047Z,6.50
2022-12-29T23:46:47.017Z,6.40
2022-12-29T23:49:14.028Z,6.40
2022-12-29T23:51:40.836Z,6.30
2022-12-29T23:54:07.862Z,6.20
2022-12-29T23:56:34.636Z,6.10
2022-12-29T23:59:05.128Z,6.20
